sensor_id;sensor_type;location;lat;lon;timestamp;temperature;humidity
7077;DHT22;3579;48.956;9.154;2023-05-07T00:00:39;23.40;51.60
7077;DHT22;3579;48.956;9.154;2023-05-07T00:03:06;23.40;51.60
7077;DHT22;3579;48.956;9.154;2023-05-07T00:05:32;23.40;51.70
7077;DHT22;3579;48.956;9.154;2023-05-07T00:07:58;23.40;51.70
7077;DHT22;3579;48.956;9.154;2023-05-07T00:10:24;23.40;51.70
7077;DHT22;3579;48.956;9.154;2023-05-07T00:12:51;23.30;51.60
7077;DHT22;3579;48.956;9.154;2023-05-07T00:15:17;23.30;51.60
7077;DHT22;3579;48.956;9.154;2023-05-07T00:17:43;23.30;51.70
7077;DHT22;3579;48.956;9.154;2023-05-07T00:20:09;23.30;51.70
7077;DHT22;3579;48.956;9.154;2023-05-07T00:22:35;23.30;51.70
7077;DHT22;3579;48.956;9.154;2023-05-07T00:25:01;23.30;51.70
7077;DHT22;3579;48.956;9.154;2023-05-07T00:27:28;23.30;51.70
7077;DHT22;3579;48.956;9.154;2023-05-07T00:29:54;23.20;51.70
7077;DHT22;3579;48.956;9.154;2023-05-07T00:32:20;23.20;51.70
7077;DHT22;3579;48.956;9.154;2023-05-07T00:34:46;23.20;51.70
7077;DHT22;3579;48.956;9.154;2023-05-07T00:37:12;23.20;52.30
7077;DHT22;3579;48.956;9.154;2023-05-07T00:39:38;23.20;51.70
7077;DHT22;3579;48.956;9.154;2023-05-07T00:42:04;23.20;51.70
7077;DHT22;3579;48.956;9.154;2023-05-07T00:44:30;23.20;51.80
7077;DHT22;3579;48.956;9.154;2023-05-07T00:46:57;23.20;51.80
7077;DHT22;3579;48.956;9.154;2023-05-07T00:49:52;23.20;51.80
7077;DHT22;3579;48.956;9.154;2023-05-07T00:52:17;23.20;51.80
7077;DHT22;3579;48.956;9.154;2023-05-07T00:54:45;23.10;51.70
7077;DHT22;3579;48.956;9.154;2023-05-07T00:57:11;23.10;51.80
7077;DHT22;3579;48.956;9.154;2023-05-07T00:59:37;23.10;51.80
7077;DHT22;3579;48.956;9.154;2023-05-07T01:02:04;23.10;51.80
7077;DHT22;3579;48.956;9.154;2023-05-07T01:04:30;23.10;51.80
7077;DHT22;3579;48.956;9.154;2023-05-07T01:06:57;23.10;51.90
7077;DHT22;3579;48.956;9.154;2023-05-07T01:09:24;23.00;51.80
7077;DHT22;3579;48.956;9.154;2023-05-07T01:11:51;23.00;51.80
7077;DHT22;3579;48.956;9.154;2023-05-07T01:14:18;23.00;51.80
7077;DHT22;3579;48.956;9.154;2023-05-07T01:16:45;23.00;51.80
7077;DHT22;3579;48.956;9.154;2023-05-07T01:19:12;23.00;51.90
7077;DHT22;3579;48.956;9.154;2023-05-07T01:21:43;23.00;51.90
7077;DHT22;3579;48.956;9.154;2023-05-07T01:24:11;22.90;52.40
7077;DHT22;3579;48.956;9.154;2023-05-07T01:26:38;22.90;51.80
7077;DHT22;3579;48.956;9.154;2023-05-07T01:29:04;22.90;51.90
7077;DHT22;3579;48.956;9.154;2023-05-07T01:31:30;22.90;51.90
7077;DHT22;3579;48.956;9.154;2023-05-07T01:33:59;22.90;51.90
7077;DHT22;3579;48.956;9.154;2023-05-07T01:36:25;22.90;51.90
7077;DHT22;3579;48.956;9.154;2023-05-07T01:38:53;22.90;51.90
7077;DHT22;3579;48.956;9.154;2023-05-07T01:41:19;22.90;51.90
7077;DHT22;3579;48.956;9.154;2023-05-07T01:43:47;22.80;51.90
7077;DHT22;3579;48.956;9.154;2023-05-07T01:46:14;22.80;51.90
7077;DHT22;3579;48.956;9.154;2023-05-07T01:48:41;22.80;52.00
7077;DHT22;3579;48.956;9.154;2023-05-07T01:51:08;22.80;51.90
7077;DHT22;3579;48.956;9.154;2023-05-07T01:53:38;22.80;52.00
7077;DHT22;3579;48.956;9.154;2023-05-07T01:56:05;22.80;52.00
7077;DHT22;3579;48.956;9.154;2023-05-07T01:58:31;22.80;52.00
7077;DHT22;3579;48.956;9.154;2023-05-07T02:00:57;22.80;52.00
7077;DHT22;3579;48.956;9.154;2023-05-07T02:03:23;22.70;52.00
7077;DHT22;3579;48.956;9.154;2023-05-07T02:05:49;22.70;52.00
7077;DHT22;3579;48.956;9.154;2023-05-07T02:08:15;22.70;52.00
7077;DHT22;3579;48.956;9.154;2023-05-07T02:10:42;22.70;52.00
7077;DHT22;3579;48.956;9.154;2023-05-07T02:13:08;22.70;52.00
7077;DHT22;3579;48.956;9.154;2023-05-07T02:15:34;22.70;52.00
7077;DHT22;3579;48.956;9.154;2023-05-07T02:18:07;22.70;52.10
7077;DHT22;3579;48.956;9.154;2023-05-07T02:20:33;22.60;52.00
7077;DHT22;3579;48.956;9.154;2023-05-07T02:22:59;22.60;52.00
7077;DHT22;3579;48.956;9.154;2023-05-07T02:25:27;22.60;52.10
7077;DHT22;3579;48.956;9.154;2023-05-07T02:27:53;22.60;52.00
7077;DHT22;3579;48.956;9.154;2023-05-07T02:30:19;22.60;52.10
7077;DHT22;3579;48.956;9.154;2023-05-07T02:32:46;22.60;52.10
7077;DHT22;3579;48.956;9.154;2023-05-07T02:35:12;22.60;52.10
7077;DHT22;3579;48.956;9.154;2023-05-07T02:37:38;22.60;52.10
7077;DHT22;3579;48.956;9.154;2023-05-07T02:40:05;22.60;52.20
7077;DHT22;3579;48.956;9.154;2023-05-07T02:42:31;22.60;52.10
7077;DHT22;3579;48.956;9.154;2023-05-07T02:44:57;22.50;52.00
7077;DHT22;3579;48.956;9.154;2023-05-07T02:47:25;22.50;52.10
7077;DHT22;3579;48.956;9.154;2023-05-07T02:49:53;22.50;52.10
7077;DHT22;3579;48.956;9.154;2023-05-07T02:52:19;22.50;52.10
7077;DHT22;3579;48.956;9.154;2023-05-07T02:54:45;22.50;52.20
7077;DHT22;3579;48.956;9.154;2023-05-07T02:57:11;22.50;52.20
7077;DHT22;3579;48.956;9.154;2023-05-07T02:59:37;22.50;52.20
7077;DHT22;3579;48.956;9.154;2023-05-07T03:02:03;22.50;52.20
7077;DHT22;3579;48.956;9.154;2023-05-07T03:04:29;22.50;52.20
7077;DHT22;3579;48.956;9.154;2023-05-07T03:06:55;22.40;52.10
7077;DHT22;3579;48.956;9.154;2023-05-07T03:09:21;22.40;52.10
7077;DHT22;3579;48.956;9.154;2023-05-07T03:11:47;22.40;52.20
7077;DHT22;3579;48.956;9.154;2023-05-07T03:14:13;22.40;52.20
7077;DHT22;3579;48.956;9.154;2023-05-07T03:16:39;22.40;52.20
7077;DHT22;3579;48.956;9.154;2023-05-07T03:19:05;22.40;52.30
7077;DHT22;3579;48.956;9.154;2023-05-07T03:21:31;22.40;52.30
7077;DHT22;3579;48.956;9.154;2023-05-07T03:23:59;22.40;52.30
7077;DHT22;3579;48.956;9.154;2023-05-07T03:26:26;22.30;52.20
7077;DHT22;3579;48.956;9.154;2023-05-07T03:28:52;22.30;52.20
7077;DHT22;3579;48.956;9.154;2023-05-07T03:31:18;22.30;52.20
7077;DHT22;3579;48.956;9.154;2023-05-07T03:33:52;22.30;52.20
7077;DHT22;3579;48.956;9.154;2023-05-07T03:36:18;22.30;52.30
7077;DHT22;3579;48.956;9.154;2023-05-07T03:38:44;22.20;52.20
7077;DHT22;3579;48.956;9.154;2023-05-07T03:41:11;22.30;52.30
7077;DHT22;3579;48.956;9.154;2023-05-07T03:43:37;22.20;52.20
7077;DHT22;3579;48.956;9.154;2023-05-07T03:46:03;22.20;52.20
7077;DHT22;3579;48.956;9.154;2023-05-07T03:48:29;22.20;52.30
7077;DHT22;3579;48.956;9.154;2023-05-07T03:50:57;22.20;52.30
7077;DHT22;3579;48.956;9.154;2023-05-07T03:53:23;22.20;52.30
7077;DHT22;3579;48.956;9.154;2023-05-07T03:55:49;22.20;52.30
7077;DHT22;3579;48.956;9.154;2023-05-07T03:58:15;22.20;52.30
7077;DHT22;3579;48.956;9.154;2023-05-07T04:00:42;22.20;52.30
7077;DHT22;3579;48.956;9.154;2023-05-07T04:03:08;22.20;52.30
7077;DHT22;3579;48.956;9.154;2023-05-07T04:05:34;22.10;52.30
7077;DHT22;3579;48.956;9.154;2023-05-07T04:08:00;22.10;52.30
7077;DHT22;3579;48.956;9.154;2023-05-07T04:10:26;22.10;52.30
7077;DHT22;3579;48.956;9.154;2023-05-07T04:12:54;22.10;52.30
7077;DHT22;3579;48.956;9.154;2023-05-07T04:15:20;22.10;52.30
7077;DHT22;3579;48.956;9.154;2023-05-07T04:17:46;22.10;52.30
7077;DHT22;3579;48.956;9.154;2023-05-07T04:20:16;22.10;52.30
7077;DHT22;3579;48.956;9.154;2023-05-07T04:22:42;22.10;52.30
7077;DHT22;3579;48.956;9.154;2023-05-07T04:25:09;22.10;52.20
7077;DHT22;3579;48.956;9.154;2023-05-07T04:27:36;22.10;52.20
7077;DHT22;3579;48.956;9.154;2023-05-07T04:30:02;22.10;52.20
7077;DHT22;3579;48.956;9.154;2023-05-07T04:32:29;22.10;52.20
7077;DHT22;3579;48.956;9.154;2023-05-07T04:34:56;22.20;52.30
7077;DHT22;3579;48.956;9.154;2023-05-07T04:37:22;22.20;52.30
7077;DHT22;3579;48.956;9.154;2023-05-07T04:39:48;22.20;52.20
7077;DHT22;3579;48.956;9.154;2023-05-07T04:42:18;22.20;52.20
7077;DHT22;3579;48.956;9.154;2023-05-07T04:44:45;22.20;52.10
7077;DHT22;3579;48.956;9.154;2023-05-07T04:47:11;22.20;52.10
7077;DHT22;3579;48.956;9.154;2023-05-07T04:49:38;22.20;52.00
7077;DHT22;3579;48.956;9.154;2023-05-07T04:52:04;22.20;52.00
7077;DHT22;3579;48.956;9.154;2023-05-07T04:54:30;22.30;51.90
7077;DHT22;3579;48.956;9.154;2023-05-07T04:56:56;22.40;51.90
7077;DHT22;3579;48.956;9.154;2023-05-07T04:59:22;22.40;51.90
7077;DHT22;3579;48.956;9.154;2023-05-07T05:01:48;22.50;51.80
7077;DHT22;3579;48.956;9.154;2023-05-07T05:04:14;22.60;51.50
7077;DHT22;3579;48.956;9.154;2023-05-07T05:06:41;22.80;51.30
7077;DHT22;3579;48.956;9.154;2023-05-07T05:09:07;22.80;51.10
7077;DHT22;3579;48.956;9.154;2023-05-07T05:11:33;22.90;51.00
7077;DHT22;3579;48.956;9.154;2023-05-07T05:13:59;23.00;51.00
7077;DHT22;3579;48.956;9.154;2023-05-07T05:16:26;22.90;51.00
7077;DHT22;3579;48.956;9.154;2023-05-07T05:18:52;22.90;51.10
7077;DHT22;3579;48.956;9.154;2023-05-07T05:21:20;22.90;51.20
7077;DHT22;3579;48.956;9.154;2023-05-07T05:23:46;22.80;51.10
7077;DHT22;3579;48.956;9.154;2023-05-07T05:26:13;22.80;51.20
7077;DHT22;3579;48.956;9.154;2023-05-07T05:28:39;22.80;51.20
7077;DHT22;3579;48.956;9.154;2023-05-07T05:31:05;22.90;51.20
7077;DHT22;3579;48.956;9.154;2023-05-07T05:33:31;22.90;51.10
7077;DHT22;3579;48.956;9.154;2023-05-07T05:35:57;23.00;51.00
7077;DHT22;3579;48.956;9.154;2023-05-07T05:38:23;23.20;50.80
7077;DHT22;3579;48.956;9.154;2023-05-07T05:40:49;23.30;50.60
7077;DHT22;3579;48.956;9.154;2023-05-07T05:43:15;23.60;50.40
7077;DHT22;3579;48.956;9.154;2023-05-07T05:45:41;23.70;50.10
7077;DHT22;3579;48.956;9.154;2023-05-07T05:48:07;23.90;49.80
7077;DHT22;3579;48.956;9.154;2023-05-07T05:50:34;24.00;49.50
7077;DHT22;3579;48.956;9.154;2023-05-07T05:53:02;25.80;50.20
7077;DHT22;3579;48.956;9.154;2023-05-07T05:55:28;24.70;48.90
7077;DHT22;3579;48.956;9.154;2023-05-07T05:57:54;24.80;48.50
7077;DHT22;3579;48.956;9.154;2023-05-07T06:00:20;25.00;48.20
7077;DHT22;3579;48.956;9.154;2023-05-07T06:02:48;25.20;48.00
7077;DHT22;3579;48.956;9.154;2023-05-07T06:05:14;25.20;48.30
7077;DHT22;3579;48.956;9.154;2023-05-07T06:07:40;25.30;47.80
7077;DHT22;3579;48.956;9.154;2023-05-07T06:10:07;25.60;47.60
7077;DHT22;3579;48.956;9.154;2023-05-07T06:12:33;25.90;47.00
7077;DHT22;3579;48.956;9.154;2023-05-07T06:14:59;26.20;46.60
7077;DHT22;3579;48.956;9.154;2023-05-07T06:17:25;26.40;46.30
7077;DHT22;3579;48.956;9.154;2023-05-07T06:19:51;26.70;45.90
7077;DHT22;3579;48.956;9.154;2023-05-07T06:22:17;27.00;45.30
7077;DHT22;3579;48.956;9.154;2023-05-07T06:24:43;27.30;44.80
7077;DHT22;3579;48.956;9.154;2023-05-07T06:27:09;27.50;44.50
7077;DHT22;3579;48.956;9.154;2023-05-07T06:29:35;27.90;44.00
7077;DHT22;3579;48.956;9.154;2023-05-07T06:32:12;28.10;43.90
7077;DHT22;3579;48.956;9.154;2023-05-07T06:34:39;27.40;44.40
7077;DHT22;3579;48.956;9.154;2023-05-07T06:37:06;27.00;45.30
7077;DHT22;3579;48.956;9.154;2023-05-07T06:39:32;26.90;45.60
7077;DHT22;3579;48.956;9.154;2023-05-07T06:42:00;26.80;45.80
7077;DHT22;3579;48.956;9.154;2023-05-07T06:44:26;26.50;46.80
7077;DHT22;3579;48.956;9.154;2023-05-07T06:46:52;26.40;46.50
7077;DHT22;3579;48.956;9.154;2023-05-07T06:49:18;27.20;46.10
7077;DHT22;3579;48.956;9.154;2023-05-07T06:51:44;28.20;44.30
7077;DHT22;3579;48.956;9.154;2023-05-07T06:54:10;27.40;44.70
7077;DHT22;3579;48.956;9.154;2023-05-07T06:56:36;27.10;45.60
7077;DHT22;3579;48.956;9.154;2023-05-07T06:59:03;26.90;45.80
7077;DHT22;3579;48.956;9.154;2023-05-07T07:01:29;26.90;46.10
7077;DHT22;3579;48.956;9.154;2023-05-07T07:03:55;27.30;45.80
7077;DHT22;3579;48.956;9.154;2023-05-07T07:06:21;28.40;44.50
7077;DHT22;3579;48.956;9.154;2023-05-07T07:08:47;28.90;43.70
7077;DHT22;3579;48.956;9.154;2023-05-07T07:11:13;30.30;42.30
7077;DHT22;3579;48.956;9.154;2023-05-07T07:13:39;30.60;40.90
7077;DHT22;3579;48.956;9.154;2023-05-07T07:16:06;31.30;40.00
7077;DHT22;3579;48.956;9.154;2023-05-07T07:18:32;31.60;39.40
7077;DHT22;3579;48.956;9.154;2023-05-07T07:20:58;31.80;39.10
7077;DHT22;3579;48.956;9.154;2023-05-07T07:23:24;31.90;38.90
7077;DHT22;3579;48.956;9.154;2023-05-07T07:25:51;30.80;39.80
7077;DHT22;3579;48.956;9.154;2023-05-07T07:28:17;29.60;41.30
7077;DHT22;3579;48.956;9.154;2023-05-07T07:30:43;28.80;43.00
7077;DHT22;3579;48.956;9.154;2023-05-07T07:33:09;28.50;43.60
7077;DHT22;3579;48.956;9.154;2023-05-07T07:35:35;28.20;44.30
7077;DHT22;3579;48.956;9.154;2023-05-07T07:38:01;28.10;44.70
7077;DHT22;3579;48.956;9.154;2023-05-07T07:40:28;27.90;45.00
7077;DHT22;3579;48.956;9.154;2023-05-07T07:42:54;27.80;45.30
7077;DHT22;3579;48.956;9.154;2023-05-07T07:45:20;27.70;45.60
7077;DHT22;3579;48.956;9.154;2023-05-07T07:47:46;27.60;45.80
7077;DHT22;3579;48.956;9.154;2023-05-07T07:50:12;27.50;46.00
7077;DHT22;3579;48.956;9.154;2023-05-07T07:52:38;27.40;46.20
7077;DHT22;3579;48.956;9.154;2023-05-07T07:55:05;27.20;46.50
7077;DHT22;3579;48.956;9.154;2023-05-07T07:57:31;27.10;46.60
7077;DHT22;3579;48.956;9.154;2023-05-07T07:59:57;27.10;46.80
7077;DHT22;3579;48.956;9.154;2023-05-07T08:02:23;27.00;47.00
7077;DHT22;3579;48.956;9.154;2023-05-07T08:04:49;26.90;47.00
7077;DHT22;3579;48.956;9.154;2023-05-07T08:07:15;26.90;47.10
7077;DHT22;3579;48.956;9.154;2023-05-07T08:09:44;26.90;47.20
7077;DHT22;3579;48.956;9.154;2023-05-07T08:12:10;26.90;47.30
7077;DHT22;3579;48.956;9.154;2023-05-07T08:14:36;26.90;47.30
7077;DHT22;3579;48.956;9.154;2023-05-07T08:17:02;26.90;47.50
7077;DHT22;3579;48.956;9.154;2023-05-07T08:19:28;26.90;47.50
7077;DHT22;3579;48.956;9.154;2023-05-07T08:21:54;26.90;47.50
7077;DHT22;3579;48.956;9.154;2023-05-07T08:24:21;26.90;47.60
7077;DHT22;3579;48.956;9.154;2023-05-07T08:26:47;26.90;47.60
7077;DHT22;3579;48.956;9.154;2023-05-07T08:29:13;26.90;47.60
7077;DHT22;3579;48.956;9.154;2023-05-07T08:31:39;26.90;47.70
7077;DHT22;3579;48.956;9.154;2023-05-07T08:34:05;26.90;47.70
7077;DHT22;3579;48.956;9.154;2023-05-07T08:36:32;26.80;47.80
7077;DHT22;3579;48.956;9.154;2023-05-07T08:38:59;26.80;47.80
7077;DHT22;3579;48.956;9.154;2023-05-07T08:41:25;26.80;47.80
7077;DHT22;3579;48.956;9.154;2023-05-07T08:43:51;26.80;47.90
7077;DHT22;3579;48.956;9.154;2023-05-07T08:46:19;26.80;47.90
7077;DHT22;3579;48.956;9.154;2023-05-07T08:48:48;26.80;48.00
7077;DHT22;3579;48.956;9.154;2023-05-07T08:51:19;26.80;48.10
7077;DHT22;3579;48.956;9.154;2023-05-07T08:53:47;26.80;48.10
7077;DHT22;3579;48.956;9.154;2023-05-07T08:56:16;26.80;48.10
7077;DHT22;3579;48.956;9.154;2023-05-07T08:58:43;26.80;48.10
7077;DHT22;3579;48.956;9.154;2023-05-07T09:01:13;26.90;48.10
7077;DHT22;3579;48.956;9.154;2023-05-07T09:03:40;26.90;48.10
7077;DHT22;3579;48.956;9.154;2023-05-07T09:06:06;26.90;48.00
7077;DHT22;3579;48.956;9.154;2023-05-07T09:08:33;26.90;48.10
7077;DHT22;3579;48.956;9.154;2023-05-07T09:11:00;27.00;48.10
7077;DHT22;3579;48.956;9.154;2023-05-07T09:13:27;26.90;48.00
7077;DHT22;3579;48.956;9.154;2023-05-07T09:15:54;27.00;48.10
7077;DHT22;3579;48.956;9.154;2023-05-07T09:18:20;27.00;48.10
7077;DHT22;3579;48.956;9.154;2023-05-07T09:20:46;27.00;48.00
7077;DHT22;3579;48.956;9.154;2023-05-07T09:23:12;27.10;48.00
7077;DHT22;3579;48.956;9.154;2023-05-07T09:25:39;27.10;48.00
7077;DHT22;3579;48.956;9.154;2023-05-07T09:28:05;27.20;47.90
7077;DHT22;3579;48.956;9.154;2023-05-07T09:30:34;27.20;47.90
7077;DHT22;3579;48.956;9.154;2023-05-07T09:33:02;27.30;48.00
7077;DHT22;3579;48.956;9.154;2023-05-07T09:35:30;27.30;47.90
7077;DHT22;3579;48.956;9.154;2023-05-07T09:37:58;27.30;47.90
7077;DHT22;3579;48.956;9.154;2023-05-07T09:40:25;27.30;47.90
7077;DHT22;3579;48.956;9.154;2023-05-07T09:42:52;27.30;47.90
7077;DHT22;3579;48.956;9.154;2023-05-07T09:45:37;27.40;47.90
7077;DHT22;3579;48.956;9.154;2023-05-07T09:48:05;27.40;47.90
7077;DHT22;3579;48.956;9.154;2023-05-07T09:50:36;27.40;47.80
7077;DHT22;3579;48.956;9.154;2023-05-07T09:53:03;27.40;47.80
7077;DHT22;3579;48.956;9.154;2023-05-07T09:55:30;27.50;47.80
7077;DHT22;3579;48.956;9.154;2023-05-07T09:57:57;27.60;47.70
7077;DHT22;3579;48.956;9.154;2023-05-07T10:00:25;27.60;47.70
7077;DHT22;3579;48.956;9.154;2023-05-07T10:02:52;27.60;47.80
7077;DHT22;3579;48.956;9.154;2023-05-07T10:05:19;27.60;47.60
7077;DHT22;3579;48.956;9.154;2023-05-07T10:07:48;27.70;47.70
7077;DHT22;3579;48.956;9.154;2023-05-07T10:10:15;27.70;47.60
7077;DHT22;3579;48.956;9.154;2023-05-07T10:12:41;27.70;47.70
7077;DHT22;3579;48.956;9.154;2023-05-07T10:15:12;27.70;47.60
7077;DHT22;3579;48.956;9.154;2023-05-07T10:17:39;27.70;47.50
7077;DHT22;3579;48.956;9.154;2023-05-07T10:20:06;27.80;47.60
7077;DHT22;3579;48.956;9.154;2023-05-07T10:22:41;27.80;47.50
7077;DHT22;3579;48.956;9.154;2023-05-07T10:25:19;27.80;47.50
7077;DHT22;3579;48.956;9.154;2023-05-07T10:27:47;27.80;47.50
7077;DHT22;3579;48.956;9.154;2023-05-07T10:30:53;27.80;47.50
7077;DHT22;3579;48.956;9.154;2023-05-07T10:33:29;27.90;47.50
7077;DHT22;3579;48.956;9.154;2023-05-07T10:35:58;27.90;47.50
7077;DHT22;3579;48.956;9.154;2023-05-07T10:38:25;27.90;47.50
7077;DHT22;3579;48.956;9.154;2023-05-07T10:40:52;27.90;48.10
7077;DHT22;3579;48.956;9.154;2023-05-07T10:43:18;27.90;47.50
7077;DHT22;3579;48.956;9.154;2023-05-07T10:51:35;27.90;47.50
7077;DHT22;3579;48.956;9.154;2023-05-07T10:56:41;27.80;47.60
7077;DHT22;3579;48.956;9.154;2023-05-07T11:02:02;27.80;47.60
7077;DHT22;3579;48.956;9.154;2023-05-07T11:04:30;27.80;47.70
7077;DHT22;3579;48.956;9.154;2023-05-07T11:15:05;27.90;47.70
7077;DHT22;3579;48.956;9.154;2023-05-07T11:17:32;27.90;47.70
7077;DHT22;3579;48.956;9.154;2023-05-07T11:20:01;27.90;47.80
7077;DHT22;3579;48.956;9.154;2023-05-07T11:25:00;27.90;47.70
7077;DHT22;3579;48.956;9.154;2023-05-07T11:27:27;27.90;47.70
7077;DHT22;3579;48.956;9.154;2023-05-07T11:29:53;27.90;47.80
7077;DHT22;3579;48.956;9.154;2023-05-07T11:32:27;27.90;47.80
7077;DHT22;3579;48.956;9.154;2023-05-07T11:34:54;27.90;47.80
7077;DHT22;3579;48.956;9.154;2023-05-07T11:37:21;27.80;47.80
7077;DHT22;3579;48.956;9.154;2023-05-07T11:39:50;27.80;47.90
7077;DHT22;3579;48.956;9.154;2023-05-07T11:42:31;27.80;47.90
7077;DHT22;3579;48.956;9.154;2023-05-07T11:44:57;27.80;48.00
7077;DHT22;3579;48.956;9.154;2023-05-07T11:47:23;27.80;48.00
7077;DHT22;3579;48.956;9.154;2023-05-07T11:49:51;27.80;48.00
7077;DHT22;3579;48.956;9.154;2023-05-07T11:52:19;27.80;48.00
7077;DHT22;3579;48.956;9.154;2023-05-07T11:54:58;27.80;48.00
7077;DHT22;3579;48.956;9.154;2023-05-07T11:57:26;27.80;48.00
7077;DHT22;3579;48.956;9.154;2023-05-07T11:59:56;27.80;48.00
7077;DHT22;3579;48.956;9.154;2023-05-07T12:02:24;27.80;48.10
7077;DHT22;3579;48.956;9.154;2023-05-07T12:04:51;27.80;48.10
7077;DHT22;3579;48.956;9.154;2023-05-07T12:07:17;27.80;48.00
7077;DHT22;3579;48.956;9.154;2023-05-07T12:09:44;27.80;48.10
7077;DHT22;3579;48.956;9.154;2023-05-07T12:12:11;27.80;48.20
7077;DHT22;3579;48.956;9.154;2023-05-07T12:14:41;27.80;48.10
7077;DHT22;3579;48.956;9.154;2023-05-07T12:17:08;27.80;48.10
7077;DHT22;3579;48.956;9.154;2023-05-07T12:19:35;27.80;48.10
7077;DHT22;3579;48.956;9.154;2023-05-07T12:22:05;27.80;48.10
7077;DHT22;3579;48.956;9.154;2023-05-07T12:25:02;27.80;48.00
7077;DHT22;3579;48.956;9.154;2023-05-07T12:27:28;27.90;48.00
7077;DHT22;3579;48.956;9.154;2023-05-07T12:29:54;27.90;47.90
7077;DHT22;3579;48.956;9.154;2023-05-07T12:32:23;27.90;47.90
7077;DHT22;3579;48.956;9.154;2023-05-07T12:34:52;27.60;47.70
7077;DHT22;3579;48.956;9.154;2023-05-07T12:37:23;28.00;48.00
7077;DHT22;3579;48.956;9.154;2023-05-07T12:40:13;28.00;48.00
7077;DHT22;3579;48.956;9.154;2023-05-07T12:42:40;28.00;47.90
7077;DHT22;3579;48.956;9.154;2023-05-07T12:45:11;27.90;47.90
7077;DHT22;3579;48.956;9.154;2023-05-07T12:47:37;27.90;47.90
7077;DHT22;3579;48.956;9.154;2023-05-07T12:50:06;27.90;48.60
7077;DHT22;3579;48.956;9.154;2023-05-07T12:52:33;27.90;48.00
7077;DHT22;3579;48.956;9.154;2023-05-07T12:55:05;27.90;48.00
7077;DHT22;3579;48.956;9.154;2023-05-07T12:57:41;27.90;48.10
7077;DHT22;3579;48.956;9.154;2023-05-07T13:00:08;27.90;48.20
7077;DHT22;3579;48.956;9.154;2023-05-07T13:02:41;27.80;48.20
7077;DHT22;3579;48.956;9.154;2023-05-07T13:05:10;27.80;48.20
7077;DHT22;3579;48.956;9.154;2023-05-07T13:07:36;27.80;48.30
7077;DHT22;3579;48.956;9.154;2023-05-07T13:10:03;27.70;48.30
7077;DHT22;3579;48.956;9.154;2023-05-07T13:12:30;27.70;48.30
7077;DHT22;3579;48.956;9.154;2023-05-07T13:14:56;27.70;48.40
7077;DHT22;3579;48.956;9.154;2023-05-07T13:17:22;27.70;48.50
7077;DHT22;3579;48.956;9.154;2023-05-07T13:19:48;27.60;48.50
7077;DHT22;3579;48.956;9.154;2023-05-07T13:22:14;27.60;48.60
7077;DHT22;3579;48.956;9.154;2023-05-07T13:24:40;27.60;48.70
7077;DHT22;3579;48.956;9.154;2023-05-07T13:27:08;27.50;48.70
7077;DHT22;3579;48.956;9.154;2023-05-07T13:29:34;27.50;48.90
7077;DHT22;3579;48.956;9.154;2023-05-07T13:32:00;27.50;48.80
7077;DHT22;3579;48.956;9.154;2023-05-07T13:34:26;27.40;48.80
7077;DHT22;3579;48.956;9.154;2023-05-07T13:36:52;27.40;48.90
7077;DHT22;3579;48.956;9.154;2023-05-07T13:39:18;27.40;49.00
7077;DHT22;3579;48.956;9.154;2023-05-07T13:41:44;27.30;49.00
7077;DHT22;3579;48.956;9.154;2023-05-07T13:44:10;27.30;49.10
7077;DHT22;3579;48.956;9.154;2023-05-07T13:46:37;27.30;49.10
7077;DHT22;3579;48.956;9.154;2023-05-07T13:49:03;27.20;49.20
7077;DHT22;3579;48.956;9.154;2023-05-07T13:51:29;27.20;49.30
7077;DHT22;3579;48.956;9.154;2023-05-07T13:53:55;27.10;49.30
7077;DHT22;3579;48.956;9.154;2023-05-07T13:56:21;27.10;49.90
7077;DHT22;3579;48.956;9.154;2023-05-07T13:58:47;27.00;49.40
7077;DHT22;3579;48.956;9.154;2023-05-07T14:01:13;27.00;49.50
7077;DHT22;3579;48.956;9.154;2023-05-07T14:03:39;27.00;49.50
7077;DHT22;3579;48.956;9.154;2023-05-07T14:06:05;26.90;49.60
7077;DHT22;3579;48.956;9.154;2023-05-07T14:08:31;26.90;49.60
7077;DHT22;3579;48.956;9.154;2023-05-07T14:10:57;26.90;49.60
7077;DHT22;3579;48.956;9.154;2023-05-07T14:13:23;25.90;49.00
7077;DHT22;3579;48.956;9.154;2023-05-07T14:15:50;26.80;49.70
7077;DHT22;3579;48.956;9.154;2023-05-07T14:18:16;26.80;49.90
7077;DHT22;3579;48.956;9.154;2023-05-07T14:20:42;26.70;49.80
7077;DHT22;3579;48.956;9.154;2023-05-07T14:23:12;26.70;49.90
7077;DHT22;3579;48.956;9.154;2023-05-07T14:25:38;26.70;50.00
7077;DHT22;3579;48.956;9.154;2023-05-07T14:28:04;26.60;50.00
7077;DHT22;3579;48.956;9.154;2023-05-07T14:30:30;26.60;50.00
7077;DHT22;3579;48.956;9.154;2023-05-07T14:32:56;26.60;50.00
7077;DHT22;3579;48.956;9.154;2023-05-07T14:35:22;26.50;50.10
7077;DHT22;3579;48.956;9.154;2023-05-07T14:37:48;26.50;50.10
7077;DHT22;3579;48.956;9.154;2023-05-07T14:40:14;26.50;50.10
7077;DHT22;3579;48.956;9.154;2023-05-07T14:42:40;26.50;50.10
7077;DHT22;3579;48.956;9.154;2023-05-07T14:45:07;26.40;50.10
7077;DHT22;3579;48.956;9.154;2023-05-07T14:47:33;26.40;50.20
7077;DHT22;3579;48.956;9.154;2023-05-07T14:49:59;26.40;50.20
7077;DHT22;3579;48.956;9.154;2023-05-07T14:52:26;26.40;50.30
7077;DHT22;3579;48.956;9.154;2023-05-07T14:54:53;26.40;50.30
7077;DHT22;3579;48.956;9.154;2023-05-07T14:57:19;26.40;50.30
7077;DHT22;3579;48.956;9.154;2023-05-07T14:59:45;26.30;50.20
7077;DHT22;3579;48.956;9.154;2023-05-07T15:02:11;26.30;50.30
7077;DHT22;3579;48.956;9.154;2023-05-07T15:04:38;26.30;50.30
7077;DHT22;3579;48.956;9.154;2023-05-07T15:07:05;26.30;50.30
7077;DHT22;3579;48.956;9.154;2023-05-07T15:09:31;26.30;50.30
7077;DHT22;3579;48.956;9.154;2023-05-07T15:11:57;26.30;50.40
7077;DHT22;3579;48.956;9.154;2023-05-07T15:14:23;26.30;50.40
7077;DHT22;3579;48.956;9.154;2023-05-07T15:16:49;26.30;50.30
7077;DHT22;3579;48.956;9.154;2023-05-07T15:19:15;26.30;50.40
7077;DHT22;3579;48.956;9.154;2023-05-07T15:21:42;26.20;50.30
7077;DHT22;3579;48.956;9.154;2023-05-07T15:24:08;26.20;50.30
7077;DHT22;3579;48.956;9.154;2023-05-07T15:26:34;26.20;50.40
7077;DHT22;3579;48.956;9.154;2023-05-07T15:29:01;26.20;50.30
7077;DHT22;3579;48.956;9.154;2023-05-07T15:31:28;26.20;50.40
7077;DHT22;3579;48.956;9.154;2023-05-07T15:33:54;26.20;50.40
7077;DHT22;3579;48.956;9.154;2023-05-07T15:36:22;26.20;50.40
7077;DHT22;3579;48.956;9.154;2023-05-07T15:38:48;26.20;50.50
7077;DHT22;3579;48.956;9.154;2023-05-07T15:41:14;26.20;50.50
7077;DHT22;3579;48.956;9.154;2023-05-07T15:43:44;26.10;50.40
7077;DHT22;3579;48.956;9.154;2023-05-07T15:46:11;27.40;51.30
7077;DHT22;3579;48.956;9.154;2023-05-07T15:48:37;26.10;50.50
7077;DHT22;3579;48.956;9.154;2023-05-07T15:51:03;26.10;50.50
7077;DHT22;3579;48.956;9.154;2023-05-07T15:53:31;26.10;50.50
7077;DHT22;3579;48.956;9.154;2023-05-07T15:55:57;26.10;50.60
7077;DHT22;3579;48.956;9.154;2023-05-07T15:58:22;26.10;50.60
7077;DHT22;3579;48.956;9.154;2023-05-07T16:00:48;26.00;50.60
7077;DHT22;3579;48.956;9.154;2023-05-07T16:03:15;26.10;50.70
7077;DHT22;3579;48.956;9.154;2023-05-07T16:05:41;26.00;50.70
7077;DHT22;3579;48.956;9.154;2023-05-07T16:08:07;26.00;50.70
7077;DHT22;3579;48.956;9.154;2023-05-07T16:10:33;25.90;50.70
7077;DHT22;3579;48.956;9.154;2023-05-07T16:12:59;27.50;51.70
7077;DHT22;3579;48.956;9.154;2023-05-07T16:15:26;25.90;50.70
7077;DHT22;3579;48.956;9.154;2023-05-07T16:17:52;25.90;50.70
7077;DHT22;3579;48.956;9.154;2023-05-07T16:20:27;25.80;50.80
7077;DHT22;3579;48.956;9.154;2023-05-07T16:22:56;25.80;50.80